Time;durP1;ratioP1;P1;durP2;ratioP2;P2;SDS_P1;SDS_P2;PMS_P1;PMS_P2;Temp;Humidity;BMP_temperature;BMP_pressure;BME280_temperature;BME280_humidity;BME280_pressure;Samples;Min_cycle;Max_cycle;Signal;HPM_P1;HPM_P2
2021/01/26 00:00:52;;;;;;;38.90;14.43;;;;;;;;;;5048184;28;20092;-65
2021/01/26 00:03:18;;;;;;;37.10;16.08;;;;;;;;;;5044260;28;20033;-66
2021/01/26 00:05:43;;;;;;;44.45;16.83;;;;;;;;;;5058665;22;20040;-65
2021/01/26 00:08:09;;;;;;;26.92;9.25;;;;;;;;;;5089401;28;20535;-65
2021/01/26 00:10:34;;;;;;;38.90;14.00;;;;;;;;;;5085025;28;20024;-65
2021/01/26 00:13:00;;;;;;;41.22;16.92;;;;;;;;;;5085328;28;20020;-66
2021/01/26 00:15:25;;;;;;;27.80;11.82;;;;;;;;;;5084543;28;20070;-66
2021/01/26 00:17:50;;;;;;;36.13;12.55;;;;;;;;;;5085733;28;20032;-66
2021/01/26 00:20:16;;;;;;;53.05;15.80;;;;;;;;;;5086496;28;20031;-65
2021/01/26 00:22:41;;;;;;;34.60;15.82;;;;;;;;;;5085592;28;20028;-66
2021/01/26 00:25:07;;;;;;;32.88;9.98;;;;;;;;;;5084698;28;20432;-65
2021/01/26 00:27:32;;;;;;;35.10;15.82;;;;;;;;;;5085689;28;20023;-65
2021/01/26 00:29:58;;;;;;;29.30;11.23;;;;;;;;;;5085220;28;20012;-65
2021/01/26 00:32:23;;;;;;;47.88;17.33;;;;;;;;;;5086480;28;20115;-65
2021/01/26 00:34:48;;;;;;;37.55;14.50;;;;;;;;;;5084498;28;20039;-64
2021/01/26 00:37:13;;;;;;;37.42;12.38;;;;;;;;;;5085929;28;20024;-64
2021/01/26 00:39:38;;;;;;;32.17;13.07;;;;;;;;;;5088231;28;20020;-64
2021/01/26 00:42:04;;;;;;;33.22;14.70;;;;;;;;;;5089427;28;20024;-64
2021/01/26 00:44:29;;;;;;;35.35;12.65;;;;;;;;;;5089032;28;20510;-64
2021/01/26 00:46:54;;;;;;;46.53;17.55;;;;;;;;;;5089002;28;20024;-64
2021/01/26 00:49:19;;;;;;;51.70;18.60;;;;;;;;;;5089170;28;20128;-64
2021/01/26 00:51:44;;;;;;;43.03;15.52;;;;;;;;;;5088497;28;20479;-64
2021/01/26 00:54:09;;;;;;;49.92;19.83;;;;;;;;;;5089118;28;20024;-65
2021/01/26 00:56:35;;;;;;;47.13;17.27;;;;;;;;;;5089352;28;20031;-65
2021/01/26 00:59:00;;;;;;;36.20;15.25;;;;;;;;;;5088891;28;20274;-65
2021/01/26 01:01:25;;;;;;;48.03;16.65;;;;;;;;;;5089212;28;20024;-64
2021/01/26 01:03:50;;;;;;;34.30;15.43;;;;;;;;;;5089101;28;20479;-64
2021/01/26 01:06:15;;;;;;;43.58;15.20;;;;;;;;;;5088973;28;20270;-64
2021/01/26 01:08:41;;;;;;;56.15;16.23;;;;;;;;;;5089118;28;20017;-65
2021/01/26 01:11:06;;;;;;;38.60;18.92;;;;;;;;;;5088496;28;20016;-64
2021/01/26 01:13:31;;;;;;;36.28;16.63;;;;;;;;;;5087423;28;20036;-64
2021/01/26 01:15:56;;;;;;;48.85;16.85;;;;;;;;;;5088764;28;20035;-65
2021/01/26 01:18:21;;;;;;;38.50;15.75;;;;;;;;;;5088772;28;20027;-65
2021/01/26 01:20:47;;;;;;;42.40;18.33;;;;;;;;;;5088776;28;20062;-65
2021/01/26 01:23:12;;;;;;;45.63;17.30;;;;;;;;;;5088054;28;20115;-65
2021/01/26 01:25:37;;;;;;;45.53;14.95;;;;;;;;;;5087259;28;20262;-64
2021/01/26 01:28:03;;;;;;;51.40;17.05;;;;;;;;;;5088971;28;20054;-64
2021/01/26 01:30:29;;;;;;;49.60;18.15;;;;;;;;;;5088614;28;20051;-64
2021/01/26 01:32:54;;;;;;;50.28;16.75;;;;;;;;;;5088407;28;20455;-64
2021/01/26 01:35:20;;;;;;;35.08;16.33;;;;;;;;;;5087685;28;20091;-65
2021/01/26 01:37:45;;;;;;;44.20;16.60;;;;;;;;;;5087973;28;20056;-65
2021/01/26 01:40:12;;;;;;;47.28;16.23;;;;;;;;;;5088624;28;20085;-65
2021/01/26 01:42:37;;;;;;;38.35;16.20;;;;;;;;;;5087696;28;20020;-65
2021/01/26 01:45:04;;;;;;;42.05;17.30;;;;;;;;;;5087936;28;20023;-66
2021/01/26 01:48:04;;;;;;;37.13;15.98;;;;;;;;;;5086808;28;20801;-66
2021/01/26 01:50:37;;;;;;;44.83;16.50;;;;;;;;;;5044616;28;20047;-66
2021/01/26 01:53:10;;;;;;;36.72;14.48;;;;;;;;;;5079205;28;20077;-65
2021/01/26 01:55:37;;;;;;;35.53;14.02;;;;;;;;;;5087099;28;20031;-66
2021/01/26 01:58:06;;;;;;;39.22;15.70;;;;;;;;;;5088803;28;20047;-66
2021/01/26 02:00:33;;;;;;;37.60;16.15;;;;;;;;;;5087352;28;20043;-66
2021/01/26 02:03:03;;;;;;;34.35;17.25;;;;;;;;;;5087764;28;20023;-66
2021/01/26 02:05:28;;;;;;;34.17;14.77;;;;;;;;;;5086417;28;20051;-65
2021/01/26 02:07:55;;;;;;;42.78;16.40;;;;;;;;;;5088338;28;20108;-65
2021/01/26 02:10:20;;;;;;;38.95;13.80;;;;;;;;;;5086872;28;20063;-66
2021/01/26 02:12:45;;;;;;;40.03;16.27;;;;;;;;;;5087738;28;20453;-67
2021/01/26 02:15:12;;;;;;;43.60;17.50;;;;;;;;;;5086101;28;20111;-66
2021/01/26 02:17:56;;;;;;;48.40;18.90;;;;;;;;;;5087538;28;20164;-66
2021/01/26 02:20:27;;;;;;;45.92;16.08;;;;;;;;;;5087565;28;20081;-66
2021/01/26 02:23:18;;;;;;;33.60;11.13;;;;;;;;;;5087149;28;20020;-65
2021/01/26 02:26:02;;;;;;;55.03;19.38;;;;;;;;;;5081275;28;20039;-65
2021/01/26 02:28:33;;;;;;;40.72;14.50;;;;;;;;;;5087845;28;20706;-65
2021/01/26 02:30:58;;;;;;;32.08;13.95;;;;;;;;;;5068697;28;20128;-65
2021/01/26 02:33:35;;;;;;;38.03;14.75;;;;;;;;;;5087310;28;20352;-66
2021/01/26 02:36:19;;;;;;;30.70;11.95;;;;;;;;;;5085877;28;20646;-65
2021/01/26 02:38:56;;;;;;;32.05;12.52;;;;;;;;;;5087638;28;20046;-65
2021/01/26 02:41:21;;;;;;;27.70;12.38;;;;;;;;;;5087842;28;20484;-65
2021/01/26 02:44:02;;;;;;;29.10;10.65;;;;;;;;;;5087042;28;20069;-65
2021/01/26 02:46:27;;;;;;;;;;;;;;;;;;5088039;28;20713;-65
2021/01/26 02:49:00;;;;;;;25.38;13.57;;;;;;;;;;5087644;28;20296;-66
2021/01/26 02:51:44;;;;;;;31.52;14.20;;;;;;;;;;5087476;28;20016;-65
2021/01/26 02:54:15;;;;;;;28.38;10.43;;;;;;;;;;5085544;28;20062;-66
2021/01/26 02:56:45;;;;;;;33.25;13.43;;;;;;;;;;5086962;28;20020;-65
2021/01/26 02:59:29;;;;;;;31.77;12.32;;;;;;;;;;5086379;28;20107;-65
2021/01/26 03:01:58;;;;;;;40.13;12.43;;;;;;;;;;5086105;28;20052;-66
2021/01/26 03:04:31;;;;;;;40.42;12.10;;;;;;;;;;5085902;28;20626;-65
2021/01/26 03:06:58;;;;;;;36.17;11.60;;;;;;;;;;5085293;28;20073;-65
2021/01/26 03:09:32;;;;;;;31.58;11.88;;;;;;;;;;5085863;28;20012;-65
2021/01/26 03:11:57;;;;;;;26.35;10.60;;;;;;;;;;5086681;28;20038;-65
2021/01/26 03:14:32;;;;;;;43.88;11.45;;;;;;;;;;5086213;28;20111;-66
2021/01/26 03:17:06;;;;;;;31.48;10.50;;;;;;;;;;5086685;28;20289;-67
2021/01/26 03:19:33;;;;;;;28.73;12.00;;;;;;;;;;5085997;28;20480;-65
2021/01/26 03:21:59;;;;;;;40.03;15.82;;;;;;;;;;5086641;28;21699;-66
2021/01/26 03:24:26;;;;;;;27.90;13.02;;;;;;;;;;5085188;28;20028;-65
2021/01/26 03:26:52;;;;;;;19.95;9.73;;;;;;;;;;5086643;28;20028;-65
2021/01/26 03:29:28;;;;;;;39.17;12.02;;;;;;;;;;5086918;28;20376;-66
2021/01/26 03:31:54;;;;;;;34.20;10.23;;;;;;;;;;5085722;28;20103;-66
2021/01/26 03:34:20;;;;;;;29.92;10.80;;;;;;;;;;5085503;28;20085;-65
2021/01/26 03:36:45;;;;;;;21.80;9.15;;;;;;;;;;5086784;28;20456;-65
2021/01/26 03:39:10;;;;;;;35.53;10.65;;;;;;;;;;5084735;28;20074;-66
2021/01/26 03:41:36;;;;;;;31.52;11.23;;;;;;;;;;5085408;28;20051;-65
2021/01/26 03:44:01;;;;;;;39.88;10.38;;;;;;;;;;5084925;28;20065;-65
2021/01/26 03:46:35;;;;;;;35.55;11.20;;;;;;;;;;5085050;28;20034;-66
2021/01/26 03:49:03;;;;;;;36.65;12.98;;;;;;;;;;5087283;28;20024;-64
2021/01/26 03:51:31;;;;;;;29.90;11.18;;;;;;;;;;5086546;28;20023;-65
2021/01/26 03:54:08;;;;;;;39.00;11.73;;;;;;;;;;5086186;28;20474;-65
2021/01/26 03:56:52;;;;;;;30.83;10.38;;;;;;;;;;5085779;28;20044;-66
2021/01/26 03:59:20;;;;;;;37.42;11.57;;;;;;;;;;5085979;28;20370;-65
2021/01/26 04:01:50;;;;;;;33.35;9.85;;;;;;;;;;5085537;28;20035;-64
2021/01/26 04:04:18;;;;;;;29.13;10.27;;;;;;;;;;5086470;28;20012;-65
2021/01/26 04:06:46;;;;;;;35.67;11.02;;;;;;;;;;5086239;28;20042;-65
2021/01/26 04:09:14;;;;;;;33.03;11.63;;;;;;;;;;5083902;28;20055;-64
2021/01/26 04:11:42;;;;;;;31.58;11.98;;;;;;;;;;5086496;28;20121;-65
2021/01/26 04:14:19;;;;;;;28.42;11.95;;;;;;;;;;5087617;28;20035;-64
2021/01/26 04:16:49;;;;;;;39.95;15.00;;;;;;;;;;5090324;28;20165;-65
2021/01/26 04:19:16;;;;;;;45.97;15.35;;;;;;;;;;5089737;28;20550;-65
2021/01/26 04:21:45;;;;;;;30.10;13.02;;;;;;;;;;5071317;28;20032;-65
2021/01/26 04:24:10;;;;;;;40.25;12.98;;;;;;;;;;5089196;28;20563;-65
2021/01/26 04:26:35;;;;;;;36.05;11.30;;;;;;;;;;5089949;28;20020;-65
2021/01/26 04:29:01;;;;;;;28.52;12.07;;;;;;;;;;5088590;28;20106;-65
2021/01/26 04:31:26;;;;;;;30.85;13.38;;;;;;;;;;5089603;28;20012;-65
2021/01/26 04:33:51;;;;;;;33.53;14.02;;;;;;;;;;5089624;28;20051;-65
2021/01/26 04:36:18;;;;;;;36.67;15.30;;;;;;;;;;5089436;28;20028;-64
2021/01/26 04:38:43;;;;;;;46.00;13.80;;;;;;;;;;5089729;28;20020;-64
2021/01/26 04:41:16;;;;;;;37.88;12.50;;;;;;;;;;5089153;28;20034;-65
2021/01/26 04:43:48;;;;;;;37.28;12.55;;;;;;;;;;5088949;28;20460;-64
2021/01/26 04:46:19;;;;;;;30.20;10.38;;;;;;;;;;5088780;28;20044;-66
2021/01/26 04:49:02;;;;;;;34.03;13.80;;;;;;;;;;5089650;28;20129;-65
2021/01/26 04:51:33;;;;;;;33.88;14.95;;;;;;;;;;5089401;28;20020;-65
2021/01/26 04:54:01;;;;;;;42.75;15.57;;;;;;;;;;5088977;28;20122;-65
2021/01/26 04:56:35;;;;;;;30.73;12.27;;;;;;;;;;5089257;28;20098;-65
2021/01/26 04:59:30;;;;;;;37.78;13.15;;;;;;;;;;5088890;28;20062;-65
2021/01/26 05:01:55;;;;;;;39.85;11.98;;;;;;;;;;5076574;28;20031;-65
2021/01/26 05:04:32;;;;;;;40.30;11.02;;;;;;;;;;5087875;28;20106;-65
2021/01/26 05:07:06;;;;;;;31.05;11.02;;;;;;;;;;5088641;28;20665;-64
2021/01/26 05:09:37;;;;;;;30.23;13.00;;;;;;;;;;5088103;28;20024;-65
2021/01/26 05:12:03;;;;;;;25.63;11.40;;;;;;;;;;5088699;28;20016;-65
2021/01/26 05:14:32;;;;;;;35.15;11.10;;;;;;;;;;5086943;28;20111;-65
2021/01/26 05:17:17;;;;;;;28.58;9.57;;;;;;;;;;5089105;28;20058;-65
2021/01/26 05:19:49;;;;;;;26.20;9.25;;;;;;;;;;5086444;28;20093;-65
2021/01/26 05:22:32;;;;;;;39.60;12.50;;;;;;;;;;5088547;28;20081;-65
2021/01/26 05:25:01;;;;;;;34.80;10.38;;;;;;;;;;5087572;28;20027;-65
2021/01/26 05:27:27;;;;;;;25.48;10.10;;;;;;;;;;5086079;28;20476;-65
2021/01/26 05:29:52;;;;;;;49.60;14.10;;;;;;;;;;5088564;28;20114;-65
2021/01/26 05:32:18;;;;;;;39.30;11.35;;;;;;;;;;5088318;28;20091;-65
2021/01/26 05:34:43;;;;;;;44.78;15.25;;;;;;;;;;5088319;28;20016;-65
2021/01/26 05:37:09;;;;;;;34.05;10.55;;;;;;;;;;5088539;28;20016;-65
2021/01/26 05:39:38;;;;;;;25.73;10.68;;;;;;;;;;5088197;28;20035;-65
2021/01/26 05:42:04;;;;;;;24.70;9.23;;;;;;;;;;5087431;28;20446;-65
2021/01/26 05:44:30;;;;;;;21.13;8.85;;;;;;;;;;5088073;28;20024;-65
2021/01/26 05:46:57;;;;;;;34.13;11.35;;;;;;;;;;5088249;28;20510;-65
2021/01/26 05:49:32;;;;;;;33.92;11.00;;;;;;;;;;5088066;28;20150;-65
2021/01/26 05:51:59;;;;;;;24.15;7.82;;;;;;;;;;5088234;28;20110;-65
2021/01/26 05:54:24;;;;;;;27.83;9.55;;;;;;;;;;5086967;28;20024;-65
2021/01/26 05:56:50;;;;;;;28.27;10.35;;;;;;;;;;5088056;28;20031;-65
2021/01/26 05:59:35;;;;;;;34.03;9.43;;;;;;;;;;5086746;28;20101;-65
2021/01/26 06:02:10;;;;;;;40.03;9.80;;;;;;;;;;5087721;28;20038;-65
2021/01/26 06:04:38;;;;;;;35.40;13.30;;;;;;;;;;5087345;28;20114;-65
2021/01/26 06:07:03;;;;;;;36.47;12.57;;;;;;;;;;5094156;23;20028;-64
2021/01/26 06:09:29;;;;;;;39.05;16.67;;;;;;;;;;5087864;28;20031;-66
2021/01/26 06:12:04;;;;;;;48.17;13.77;;;;;;;;;;5085667;28;20028;-65
2021/01/26 06:14:29;;;;;;;33.30;11.38;;;;;;;;;;5087158;28;20081;-65
2021/01/26 06:17:02;;;;;;;27.00;11.77;;;;;;;;;;5081151;28;20103;-66
2021/01/26 06:19:28;;;;;;;34.47;13.38;;;;;;;;;;5076617;28;20028;-65
2021/01/26 06:21:53;;;;;;;30.02;12.30;;;;;;;;;;5076222;28;20027;-64
2021/01/26 06:24:20;;;;;;;38.92;12.55;;;;;;;;;;5077095;28;20167;-65
2021/01/26 06:26:57;;;;;;;30.48;11.68;;;;;;;;;;5077306;28;20025;-64
2021/01/26 06:29:36;;;;;;;37.53;10.55;;;;;;;;;;5075719;28;20021;-66
2021/01/26 06:32:36;;;;;;;36.42;12.70;;;;;;;;;;5075936;28;20012;-64
2021/01/26 06:35:02;;;;;;;;;;;;;;;;;;5034141;28;20086;-66
2021/01/26 06:37:45;;;;;;;26.08;11.18;;;;;;;;;;5064426;28;19916;-65
2021/01/26 06:40:23;;;;;;;35.03;11.75;;;;;;;;;;5078489;28;20067;-64
2021/01/26 06:42:51;;;;;;;39.17;12.55;;;;;;;;;;5076847;28;20020;-64
2021/01/26 06:45:16;;;;;;;45.58;13.73;;;;;;;;;;5072062;28;20365;-64
2021/01/26 06:47:41;;;;;;;35.53;12.95;;;;;;;;;;5072444;28;20035;-65
2021/01/26 06:50:25;;;;;;;48.22;14.82;;;;;;;;;;5072980;28;20174;-65
2021/01/26 06:52:50;;;;;;;41.78;13.10;;;;;;;;;;5066470;28;20024;-65
2021/01/26 06:58:41;;;;;;;36.58;11.48;;;;;;;;;;5075077;28;20766;-66
2021/01/26 07:01:30;;;;;;;33.25;13.02;;;;;;;;;;5059889;28;20047;-66
2021/01/26 07:03:55;;;;;;;37.30;12.70;;;;;;;;;;5074672;28;20028;-65
2021/01/26 07:06:37;;;;;;;32.97;12.15;;;;;;;;;;5073074;28;20077;-66
2021/01/26 07:09:21;;;;;;;33.53;12.55;;;;;;;;;;5076647;28;20308;-65
2021/01/26 07:11:54;;;;;;;28.73;13.27;;;;;;;;;;5073875;28;20050;-66
2021/01/26 07:14:45;;;;;;;42.17;14.20;;;;;;;;;;5080907;28;20034;-67
2021/01/26 07:17:13;;;;;;;25.83;11.23;;;;;;;;;;5072288;28;20050;-66
2021/01/26 07:20:14;;;;;;;38.70;11.63;;;;;;;;;;5086291;28;20034;-66
2021/01/26 07:22:39;;;;;;;46.47;15.07;;;;;;;;;;5006099;28;20446;-67
2021/01/26 07:25:11;;;;;;;30.77;10.98;;;;;;;;;;5049962;28;20028;-67
2021/01/26 07:27:44;;;;;;;31.80;12.85;;;;;;;;;;5068846;28;20688;-66
2021/01/26 07:30:18;;;;;;;33.45;11.38;;;;;;;;;;5069936;28;20027;-67
2021/01/26 07:33:02;;;;;;;55.78;13.23;;;;;;;;;;5051767;28;20025;-66
2021/01/26 07:35:50;;;;;;;27.88;13.38;;;;;;;;;;5069020;28;20384;-66
2021/01/26 07:38:18;;;;;;;40.15;16.23;;;;;;;;;;5059559;28;20029;-66
2021/01/26 07:40:48;;;;;;;33.20;13.95;;;;;;;;;;5077899;28;20017;-66
2021/01/26 07:43:26;;;;;;;26.55;13.70;;;;;;;;;;5067836;28;20063;-66
2021/01/26 07:45:51;;;;;;;27.45;11.32;;;;;;;;;;5073760;28;20473;-66
2021/01/26 07:48:27;;;;;;;41.45;15.05;;;;;;;;;;5078107;28;20020;-67
2021/01/26 07:50:54;;;;;;;33.95;12.80;;;;;;;;;;5080712;28;20318;-66
2021/01/26 07:53:25;;;;;;;39.13;14.60;;;;;;;;;;5075674;28;20404;-66
2021/01/26 07:55:58;;;;;;;38.30;16.30;;;;;;;;;;5079877;28;20031;-66
2021/01/26 07:58:24;;;;;;;30.10;11.30;;;;;;;;;;5077997;28;20036;-67
2021/01/26 08:00:50;;;;;;;30.85;13.45;;;;;;;;;;5074563;28;20024;-66
2021/01/26 08:03:21;;;;;;;47.30;15.40;;;;;;;;;;5072436;28;20135;-66
2021/01/26 08:05:47;;;;;;;46.05;17.50;;;;;;;;;;5070656;28;20027;-67
2021/01/26 08:08:31;;;;;;;39.67;13.90;;;;;;;;;;5073186;28;20029;-66
2021/01/26 08:11:25;;;;;;;47.85;15.13;;;;;;;;;;5080169;28;20055;-66
2021/01/26 08:13:52;;;;;;;33.40;14.45;;;;;;;;;;5073989;28;20029;-66
2021/01/26 08:16:33;;;;;;;31.58;13.32;;;;;;;;;;5078067;28;20099;-66
2021/01/26 08:18:59;;;;;;;38.47;13.73;;;;;;;;;;5076677;28;20029;-66
2021/01/26 08:21:26;;;;;;;42.22;13.38;;;;;;;;;;5071288;28;20099;-66
2021/01/26 08:24:06;;;;;;;43.67;13.48;;;;;;;;;;5069907;28;20492;-67
2021/01/26 08:26:31;;;;;;;38.88;13.07;;;;;;;;;;5071059;28;20028;-67
2021/01/26 08:28:56;;;;;;;40.58;13.52;;;;;;;;;;5072292;28;20021;-66
2021/01/26 08:31:31;;;;;;;35.70;12.77;;;;;;;;;;5078071;28;20262;-67
2021/01/26 08:34:16;;;;;;;40.35;12.63;;;;;;;;;;5084212;28;20036;-66
2021/01/26 08:36:41;;;;;;;37.60;13.40;;;;;;;;;;5080853;28;20111;-67
2021/01/26 08:39:26;;;;;;;35.78;12.98;;;;;;;;;;5079118;28;20139;-66
2021/01/26 08:41:52;;;;;;;28.98;11.02;;;;;;;;;;5077383;28;20035;-67
2021/01/26 08:44:20;;;;;;;25.02;10.68;;;;;;;;;;5083619;28;20032;-66
2021/01/26 08:46:46;;;;;;;29.42;10.70;;;;;;;;;;5079024;28;20022;-66
2021/01/26 08:49:20;;;;;;;37.58;12.80;;;;;;;;;;5075516;28;20386;-69
2021/01/26 08:51:45;;;;;;;38.10;12.10;;;;;;;;;;5077970;28;20024;-67
2021/01/26 08:54:30;;;;;;;22.75;10.45;;;;;;;;;;5080820;28;20115;-66
2021/01/26 08:56:56;;;;;;;32.38;10.85;;;;;;;;;;5070193;28;20073;-66
2021/01/26 08:59:28;;;;;;;36.40;12.90;;;;;;;;;;5073772;28;20016;-67
2021/01/26 09:01:54;;;;;;;34.13;13.48;;;;;;;;;;5085721;28;20438;-67
2021/01/26 09:04:20;;;;;;;31.23;12.27;;;;;;;;;;5080629;28;20012;-67
2021/01/26 09:06:47;;;;;;;25.92;10.95;;;;;;;;;;5083609;28;20400;-67
2021/01/26 09:09:18;;;;;;;34.60;8.43;;;;;;;;;;5084632;28;20023;-66
2021/01/26 09:11:43;;;;;;;34.83;11.75;;;;;;;;;;5082350;28;20082;-67
2021/01/26 09:14:17;;;;;;;30.73;11.48;;;;;;;;;;5080021;28;20036;-69
2021/01/26 09:16:43;;;;;;;33.10;10.88;;;;;;;;;;5075245;28;20263;-66
2021/01/26 09:19:25;;;;;;;34.00;10.63;;;;;;;;;;5082367;28;20054;-67
2021/01/26 09:21:50;;;;;;;35.17;12.13;;;;;;;;;;5081324;28;20020;-67
2021/01/26 09:24:22;;;;;;;33.72;11.35;;;;;;;;;;5083015;28;20496;-66
2021/01/26 09:26:48;;;;;;;38.10;12.00;;;;;;;;;;5074689;28;20016;-67
2021/01/26 09:29:27;;;;;;;35.92;11.10;;;;;;;;;;5078298;28;20019;-66
2021/01/26 09:31:53;;;;;;;32.58;10.70;;;;;;;;;;5079354;28;20069;-66
2021/01/26 09:34:23;;;;;;;38.70;12.00;;;;;;;;;;5082154;28;20372;-67
2021/01/26 09:36:48;;;;;;;39.78;13.20;;;;;;;;;;5074499;28;20024;-65
2021/01/26 09:39:17;;;;;;;34.75;10.15;;;;;;;;;;5077739;28;20546;-67
2021/01/26 09:41:42;;;;;;;27.38;11.15;;;;;;;;;;5084638;28;20267;-67
2021/01/26 09:44:09;;;;;;;30.83;11.07;;;;;;;;;;5081606;28;20017;-67
2021/01/26 09:46:35;;;;;;;31.88;11.25;;;;;;;;;;5076932;28;20273;-67
2021/01/26 09:49:08;;;;;;;32.55;11.70;;;;;;;;;;5078618;28;20061;-65
2021/01/26 09:51:38;;;;;;;26.45;9.32;;;;;;;;;;5080165;28;20020;-65
2021/01/26 09:54:04;;;;;;;27.88;10.05;;;;;;;;;;5079780;28;20012;-65
2021/01/26 09:56:31;;;;;;;28.25;11.73;;;;;;;;;;5076557;28;20062;-65
2021/01/26 09:58:57;;;;;;;32.55;10.82;;;;;;;;;;5075291;28;20062;-65
2021/01/26 10:01:23;;;;;;;30.52;11.07;;;;;;;;;;5077807;28;20016;-65
2021/01/26 10:03:52;;;;;;;36.47;13.10;;;;;;;;;;5078288;28;20100;-65
2021/01/26 10:06:17;;;;;;;27.92;9.32;;;;;;;;;;5077075;28;20017;-66
2021/01/26 10:08:43;;;;;;;30.98;10.32;;;;;;;;;;5078921;28;20017;-66
2021/01/26 10:11:13;;;;;;;38.77;10.63;;;;;;;;;;5077571;28;20028;-65
2021/01/26 10:13:39;;;;;;;27.02;11.52;;;;;;;;;;5078094;28;20273;-65
2021/01/26 10:16:23;;;;;;;46.42;14.65;;;;;;;;;;5076446;28;20028;-66
2021/01/26 10:18:48;;;;;;;30.70;14.02;;;;;;;;;;5074781;28;20504;-66
2021/01/26 10:21:13;;;;;;;35.23;12.93;;;;;;;;;;5077606;28;20024;-65
2021/01/26 10:23:43;;;;;;;37.85;13.98;;;;;;;;;;5079040;28;20353;-66
2021/01/26 10:26:16;;;;;;;25.70;10.13;;;;;;;;;;5076639;28;20071;-65
2021/01/26 10:29:01;;;;;;;31.45;11.98;;;;;;;;;;5080054;28;20027;-65
2021/01/26 10:31:29;;;;;;;37.70;15.90;;;;;;;;;;5083816;28;20104;-65
2021/01/26 10:33:54;;;;;;;39.17;14.07;;;;;;;;;;5080367;28;20035;-65
2021/01/26 10:36:40;;;;;;;39.15;17.48;;;;;;;;;;5072854;28;20024;-65
2021/01/26 10:39:22;;;;;;;33.13;12.50;;;;;;;;;;5075005;28;20119;-65
2021/01/26 10:41:55;;;;;;;23.35;12.75;;;;;;;;;;5075475;28;20108;-66
2021/01/26 10:44:20;;;;;;;34.25;13.40;;;;;;;;;;5081547;28;20056;-66
2021/01/26 10:46:47;;;;;;;38.17;14.30;;;;;;;;;;5073306;28;20048;-65
2021/01/26 10:49:17;;;;;;;29.02;14.23;;;;;;;;;;5080180;28;20016;-65
2021/01/26 10:51:43;;;;;;;36.45;14.27;;;;;;;;;;5075840;28;20031;-65
2021/01/26 10:54:08;;;;;;;30.73;11.57;;;;;;;;;;5065111;28;20016;-64
2021/01/26 10:56:34;;;;;;;29.98;10.20;;;;;;;;;;5078528;28;20058;-65
2021/01/26 10:58:59;;;;;;;36.20;12.07;;;;;;;;;;5069845;28;20039;-66
2021/01/26 11:01:25;;;;;;;36.53;12.40;;;;;;;;;;5082639;28;20043;-65
2021/01/26 11:03:50;;;;;;;23.25;10.80;;;;;;;;;;5068052;28;20028;-66
2021/01/26 11:06:17;;;;;;;29.10;11.93;;;;;;;;;;5079190;28;20249;-67
2021/01/26 11:08:43;;;;;;;35.92;12.05;;;;;;;;;;5072976;28;20024;-67
2021/01/26 11:11:10;;;;;;;32.13;12.20;;;;;;;;;;5075631;28;20013;-65
2021/01/26 11:13:36;;;;;;;33.40;13.15;;;;;;;;;;5075666;28;20045;-67
2021/01/26 11:16:01;;;;;;;39.00;12.63;;;;;;;;;;5074620;28;20039;-66
2021/01/26 11:18:26;;;;;;;37.03;14.23;;;;;;;;;;5073208;28;20389;-65
2021/01/26 11:20:51;;;;;;;31.75;11.98;;;;;;;;;;5068053;28;20722;-65
2021/01/26 11:23:17;;;;;;;34.70;11.20;;;;;;;;;;5068468;28;20124;-67
2021/01/26 11:25:42;;;;;;;30.00;12.75;;;;;;;;;;5064485;28;20051;-67
2021/01/26 11:28:08;;;;;;;33.67;12.20;;;;;;;;;;5079233;28;20032;-66
2021/01/26 11:30:33;;;;;;;30.85;13.65;;;;;;;;;;5072872;28;20654;-67
2021/01/26 11:33:01;;;;;;;35.53;12.98;;;;;;;;;;5076662;28;20115;-65
2021/01/26 11:35:27;;;;;;;34.20;14.05;;;;;;;;;;5076111;28;20047;-66
2021/01/26 11:37:52;;;;;;;31.80;11.52;;;;;;;;;;5074725;28;20044;-65
2021/01/26 11:40:18;;;;;;;41.13;12.85;;;;;;;;;;5073638;28;20032;-66
2021/01/26 11:42:43;;;;;;;30.27;12.43;;;;;;;;;;5075955;28;20024;-66
2021/01/26 11:45:10;;;;;;;29.10;11.23;;;;;;;;;;5075993;28;20024;-65
2021/01/26 11:47:35;;;;;;;26.35;12.95;;;;;;;;;;5076674;28;20043;-65
2021/01/26 11:50:03;;;;;;;30.02;12.00;;;;;;;;;;5075968;28;20063;-65
2021/01/26 11:52:28;;;;;;;25.08;11.75;;;;;;;;;;5078162;28;20100;-65
2021/01/26 11:54:53;;;;;;;31.50;11.40;;;;;;;;;;5075654;28;20111;-66
2021/01/26 11:57:18;;;;;;;22.33;13.07;;;;;;;;;;5075129;28;20739;-66
2021/01/26 11:59:43;;;;;;;29.60;12.43;;;;;;;;;;5072334;28;20036;-66
2021/01/26 12:02:09;;;;;;;29.58;14.27;;;;;;;;;;5076690;28;20282;-65
2021/01/26 12:04:34;;;;;;;27.35;10.88;;;;;;;;;;5075287;28;20020;-66
2021/01/26 12:06:59;;;;;;;26.63;11.55;;;;;;;;;;5076189;28;20056;-67
2021/01/26 12:09:24;;;;;;;27.87;11.83;;;;;;;;;;5073415;28;20028;-65
2021/01/26 12:11:49;;;;;;;32.60;14.73;;;;;;;;;;5078069;28;20727;-65
2021/01/26 12:14:15;;;;;;;27.45;11.80;;;;;;;;;;5085221;28;20285;-65
2021/01/26 12:16:40;;;;;;;26.92;11.18;;;;;;;;;;5083335;28;20073;-66
2021/01/26 12:19:05;;;;;;;36.90;13.93;;;;;;;;;;5078574;28;20502;-65
2021/01/26 12:21:30;;;;;;;23.60;9.70;;;;;;;;;;5077499;28;20012;-66
2021/01/26 12:23:55;;;;;;;21.40;10.98;;;;;;;;;;5082740;28;20024;-66
2021/01/26 12:26:21;;;;;;;27.33;11.00;;;;;;;;;;5077260;28;20497;-65
2021/01/26 12:28:46;;;;;;;25.73;10.60;;;;;;;;;;5070778;28;20020;-66
2021/01/26 12:31:12;;;;;;;28.13;10.30;;;;;;;;;;5073915;28;20274;-66
2021/01/26 12:33:37;;;;;;;23.10;10.13;;;;;;;;;;5068476;28;20040;-65
2021/01/26 12:36:02;;;;;;;21.50;10.73;;;;;;;;;;5075590;28;20027;-65
2021/01/26 12:38:28;;;;;;;32.85;9.32;;;;;;;;;;5086722;28;20263;-66
2021/01/26 12:40:53;;;;;;;26.33;10.20;;;;;;;;;;5077146;28;20035;-65
2021/01/26 12:43:18;;;;;;;20.58;10.38;;;;;;;;;;5084014;28;20434;-66
2021/01/26 12:45:44;;;;;;;31.85;11.80;;;;;;;;;;5086554;28;20055;-66
2021/01/26 12:48:09;;;;;;;24.90;9.93;;;;;;;;;;5082962;28;20043;-65
2021/01/26 12:50:35;;;;;;;21.33;9.75;;;;;;;;;;5073266;28;20146;-65
2021/01/26 12:53:00;;;;;;;21.48;9.50;;;;;;;;;;5084122;28;20028;-66
2021/01/26 12:55:25;;;;;;;26.70;11.05;;;;;;;;;;5073534;28;20082;-66
2021/01/26 12:57:51;;;;;;;26.23;10.82;;;;;;;;;;5063043;28;20405;-65
2021/01/26 13:00:17;;;;;;;24.00;9.38;;;;;;;;;;5083357;28;20046;-65
2021/01/26 13:02:43;;;;;;;33.75;10.38;;;;;;;;;;5079142;28;20024;-65
2021/01/26 13:05:09;;;;;;;27.35;9.05;;;;;;;;;;5079602;28;20024;-65
2021/01/26 13:07:34;;;;;;;27.27;9.50;;;;;;;;;;5080769;28;20530;-65
2021/01/26 13:09:59;;;;;;;24.10;10.07;;;;;;;;;;5081326;28;20020;-65
2021/01/26 13:12:24;;;;;;;24.77;8.98;;;;;;;;;;5076884;28;20754;-65
2021/01/26 13:14:49;;;;;;;47.85;13.40;;;;;;;;;;5079434;28;20055;-65
2021/01/26 13:17:14;;;;;;;31.95;10.52;;;;;;;;;;5073800;28;20017;-65
2021/01/26 13:19:40;;;;;;;28.42;9.48;;;;;;;;;;5077484;28;20111;-65
2021/01/26 13:22:05;;;;;;;21.15;9.82;;;;;;;;;;5084105;28;20110;-65
2021/01/26 13:24:30;;;;;;;20.13;7.80;;;;;;;;;;5082977;28;20074;-65
2021/01/26 13:26:56;;;;;;;21.88;8.57;;;;;;;;;;5081832;28;20077;-65
2021/01/26 13:29:21;;;;;;;20.92;7.85;;;;;;;;;;5074939;28;20013;-65
2021/01/26 13:31:46;;;;;;;18.90;8.30;;;;;;;;;;5083223;28;20024;-65
2021/01/26 13:34:11;;;;;;;16.65;7.35;;;;;;;;;;5080765;28;20032;-65
2021/01/26 13:36:36;;;;;;;22.95;8.32;;;;;;;;;;5076892;28;20024;-65
2021/01/26 13:39:03;;;;;;;21.75;8.80;;;;;;;;;;5080419;28;20456;-65
2021/01/26 13:41:28;;;;;;;18.88;7.75;;;;;;;;;;5075687;28;20028;-65
2021/01/26 13:43:53;;;;;;;31.50;9.90;;;;;;;;;;5076974;28;20365;-65
2021/01/26 13:46:18;;;;;;;21.60;9.48;;;;;;;;;;5073264;28;20547;-65
2021/01/26 13:48:43;;;;;;;18.55;7.20;;;;;;;;;;5074899;28;20032;-65
2021/01/26 13:51:09;;;;;;;23.88;8.05;;;;;;;;;;5081051;28;20051;-65
2021/01/26 13:53:34;;;;;;;18.98;9.32;;;;;;;;;;5082078;28;20024;-65
2021/01/26 13:55:59;;;;;;;28.60;8.07;;;;;;;;;;5077858;28;20032;-65
2021/01/26 13:58:24;;;;;;;29.08;8.38;;;;;;;;;;5076007;28;20560;-65
2021/01/26 14:00:50;;;;;;;19.20;7.30;;;;;;;;;;5072166;28;20032;-65
2021/01/26 14:03:15;;;;;;;28.88;8.55;;;;;;;;;;5073595;28;20492;-65
2021/01/26 14:05:40;;;;;;;19.88;7.60;;;;;;;;;;5075543;28;20016;-65
2021/01/26 14:08:06;;;;;;;20.43;7.97;;;;;;;;;;5070019;28;20103;-66
2021/01/26 14:10:32;;;;;;;16.83;7.18;;;;;;;;;;5069502;28;20767;-65
2021/01/26 14:12:57;;;;;;;25.00;7.22;;;;;;;;;;5070665;28;20035;-65
2021/01/26 14:15:23;;;;;;;20.80;7.95;;;;;;;;;;5068832;28;20024;-66
2021/01/26 14:17:48;;;;;;;29.15;7.75;;;;;;;;;;5074579;28;20036;-65
2021/01/26 14:20:14;;;;;;;26.17;8.60;;;;;;;;;;5076555;28;20039;-64
2021/01/26 14:22:39;;;;;;;21.85;9.13;;;;;;;;;;5069982;28;20025;-66
2021/01/26 14:25:05;;;;;;;23.55;8.50;;;;;;;;;;5068520;28;20078;-66
2021/01/26 14:27:31;;;;;;;23.83;7.28;;;;;;;;;;5068729;28;20020;-65
2021/01/26 14:29:56;;;;;;;28.45;7.60;;;;;;;;;;5081930;28;20024;-66
2021/01/26 14:32:21;;;;;;;25.50;8.10;;;;;;;;;;5071177;28;20016;-65